Flight Track Log - Related Links

Times and Time Zones

All times are in EDT time to prevent confusion due to time zone crossing. See the N578CM flight status page for this flight to view local times or setup timezone preferences in your user account.

Time Position Orientation Groundspeed Altitude Reporting Facility
EDT Latitude Longitude Course Direction KTS MPH feet Rate Location/Type
Fri 05:16:26 PM 39.6333 -104.8500 321° Northwest 182 209 8,000  Level Denver TRACON
Fri 05:16:56 PM 39.6547 -104.8722 321° Northwest 197 227 8,000 1,891 Level Denver Center
Fri 05:17:58 PM 39.7119 -104.8967 342° North 214 246 10,900 2,371 Climbing Denver Center
Fri 05:19:00 PM 39.7175 -104.8261 84° East 220 253 12,900 2,129 Climbing Denver Center
Fri 05:20:02 PM 39.7069 -104.7411 99° East 221 254 15,300 2,000 Climbing Denver Center
Fri 05:21:03 PM 39.6983 -104.6589 98° East 231 266 17,000 1,415 Climbing Denver Center
Fri 05:22:05 PM 39.6892 -104.5839 99° East 246 283 18,200 1,645 Climbing Denver Center
Fri 05:23:07 PM 39.6761 -104.4742 99° East 255 293 20,400 1,887 Climbing Denver Center
Fri 05:24:09 PM 39.6650 -104.3831 99° East 258 297 22,100 1,694 Climbing Denver Center
Fri 05:25:11 PM 39.6522 -104.2836 99° East 262 302 23,900 1,500 Climbing Denver Center
Fri 05:26:13 PM 39.6419 -104.1942 98° East 263 303 25,200 1,210 Climbing Denver Center
Fri 05:27:15 PM 39.6297 -104.0950 99° East 275 316 26,400 1,171 Climbing Denver Center
Fri 05:28:16 PM 39.6183 -104.0092 100° East 286 329 27,600 1,306 Climbing Denver Center
Fri 05:29:19 PM 39.6011 -103.8653 99° East 302 348 29,100 1,059 Climbing Denver Center
Fri 05:30:32 PM 39.5828 -103.7572 102° East 302 348 30,000 851 Climbing Denver Center
Fri 05:31:47 PM 39.5481 -103.6269 109° East 322 371 31,200 1,095 Climbing Denver Center
Fri 05:32:49 PM 39.5131 -103.4953 109° East 328 377 32,500 871 Climbing Denver Center
Fri 05:33:51 PM 39.4833 -103.3819 109° East 327 376 33,000 309 Climbing Denver Center
Fri 05:35:05 PM 39.4450 -103.2378 109° East 358 412 33,200 569 Climbing Denver Center
Fri 05:36:08 PM 39.4050 -103.0931 110° East 363 418 34,300 926 Climbing Denver Center
Fri 05:37:21 PM 39.3706 -102.9733 110° East 354 407 35,300 971 Climbing Denver Center
Fri 05:38:24 PM 39.3336 -102.8372 109° East 342 394 36,500 816 Climbing Denver Center
Fri 05:39:26 PM 39.2969 -102.7108 111° Southeast 335 386 37,000 242 Climbing Denver Center
Fri 05:40:28 PM 39.2650 -102.5972 110° East 349 402 37,000  Level Denver Center
Fri 05:41:30 PM 39.2253 -102.4578 110° East 369 425 37,000  Level Denver Center
Fri 05:42:32 PM 39.1900 -102.3339 110° East 382 440 37,000  Level Denver Center
Fri 05:43:34 PM 39.1489 -102.1917 110° East 381 438 37,000  Level Denver Center
Fri 05:44:36 PM 39.1133 -102.0689 110° East 383 441 37,000  Level Denver Center
Fri 05:45:38 PM 39.0722 -101.9261 110° East 381 438 37,000  Level Denver Center
Fri 05:46:40 PM 39.0361 -101.8025 111° Southeast 385 443 37,000  Level Denver Center
Fri 05:47:42 PM 38.9928 -101.6581 111° Southeast 388 447 37,000  Level Denver Center
Fri 05:48:44 PM 38.9575 -101.5336 110° East 388 447 37,000  Level Denver Center
Fri 05:49:46 PM 38.9144 -101.3900 111° Southeast 386 444 37,000  Level Denver Center
Fri 05:50:48 PM 38.8775 -101.2697 111° Southeast 380 437 37,000  Level Denver Center
Fri 05:51:50 PM 38.8422 -101.1478 110° East 381 438 37,000  Level Denver Center
Fri 05:52:52 PM 38.7997 -101.0086 111° Southeast 373 429 37,000  Level Denver Center
Fri 05:53:54 PM 38.7642 -100.8903 111° Southeast 374 430 37,000  Level Denver Center
Fri 05:54:56 PM 38.7228 -100.7544 111° Southeast 368 423 37,000  Level Denver Center
Fri 05:55:58 PM 38.6878 -100.6397 111° Southeast 362 417 37,000  Level Denver Center
Fri 05:57:00 PM 38.6472 -100.5044 111° Southeast 363 418 37,000  Level Denver Center
Fri 05:58:02 PM 38.6119 -100.3911 112° Southeast 359 413 37,000  Level Denver Center
Fri 05:59:04 PM 38.5825 -100.2958 112° Southeast 359 413 37,000  Level Denver Center
Fri 06:00:06 PM 38.5344 -100.1425 112° Southeast 363 418 37,000 -435 Level Denver Center
Fri 06:01:08 PM 38.4933 -100.0086 111° Southeast 365 420 36,100 -919 Descending Denver Center
Fri 06:02:10 PM 38.4561 -99.8897 112° Southeast 372 428 35,100 -564 Descending Denver Center
Fri 06:03:05 PM 38.4164 -99.7703 113° Southeast 375 432 35,000 -51 Descending Kansas City Center
Fri 06:04:07 PM 38.3797 -99.6550 112° Southeast 370 426 35,000 -532 Level Kansas City Center
Fri 06:05:09 PM 38.3367 -99.5164 112° Southeast 374 430 33,900 -1,403 Descending Kansas City Center
Fri 06:06:11 PM 38.3011 -99.4061 112° Southeast 383 441 32,100 -1,887 Descending Kansas City Center
Fri 06:07:13 PM 38.2600 -99.2769 112° Southeast 391 450 30,000 -2,177 Descending Kansas City Center
Fri 06:08:15 PM 38.2106 -99.1247 112° Southeast 390 449 27,600 -2,129 Descending Kansas City Center
Fri 06:09:17 PM 38.1700 -99.0000 112° Southeast 383 441 25,600 -1,935 Descending Kansas City Center
Fri 06:10:19 PM 38.1319 -98.8831 112° Southeast 365 420 23,600 -1,887 Descending Kansas City Center
Fri 06:11:21 PM 38.0939 -98.7650 112° Southeast 362 417 21,700 -1,839 Descending Kansas City Center
Fri 06:12:23 PM 38.0556 -98.6489 113° Southeast 359 413 19,800 -1,790 Descending Kansas City Center
Fri 06:13:25 PM 38.0203 -98.5367 112° Southeast 349 402 18,000 -1,943 Descending Kansas City Center
Fri 06:14:08 PM 37.9869 -98.4406 114° Southeast 331 381 16,400 -2,032 Descending Kansas City Center
Fri 06:14:27 PM 37.9792 -98.4103 108° East 324 373 15,900 -1,459 Descending Kansas City Center
Fri 06:14:45 PM 37.9694 -98.3875 118° Southeast 303 349 15,500 -1,548 Descending Kansas City Center
Fri 06:15:29 PM 37.9481 -98.3150 110° East 297 342 14,300 -1,700 Descending Kansas City Center
Fri 06:15:45 PM 37.9372 -98.2861 115° Southeast 288 331 13,800 -1,452 Descending Kansas City Center
Fri 06:16:31 PM 37.9161 -98.2203 112° Southeast 294 338 12,800 -1,475 Descending Kansas City Center
Fri 06:16:46 PM 37.9056 -98.1900 114° Southeast 289 333 12,300 -1,452 Descending Kansas City Center
Fri 06:17:33 PM 37.8861 -98.1294 112° Southeast 283 326 11,300 -1,321 Descending Kansas City Center
Fri 06:18:35 PM 37.8572 -98.0444 113° Southeast 268 308 9,900 -1,500 Descending Kansas City Center
Fri 06:19:37 PM 37.8236 -97.9425 113° Southeast 268 308 8,200 -1,595 Descending Kansas City Center
Fri 06:19:54 PM 37.8158 -97.9222 116° Southeast 270 311 7,800 -1,355 Descending Kansas City Center
Fri 06:20:39 PM 37.7933 -97.8550 113° Southeast 276 318 6,800 -1,400 Descending Kansas City Center
Fri 06:20:54 PM 37.7842 -97.8317 116° Southeast 279 321 6,400 -1,452 Descending Kansas City Center
Fri 06:21:41 PM 37.7578 -97.7717 119° Southeast 272 313 5,300 -1,309 Descending Kansas City Center
Fri 06:22:44 PM 37.7206 -97.6956 122° Southeast 257 296 4,000 -1,104 Descending Kansas City Center
Fri 06:23:46 PM 37.6850 -97.6236 122° Southeast 244 281 3,000 -496 Descending Kansas City Center
Fri 06:24:45 PM 37.6461 -97.5511 124° Southeast 220 253 3,000  Level Kansas City Center
Fri 06:25:50 PM 37.5950 -97.5244 158° South 213 245 3,000  Level Kansas City Center
Fri 06:26:46 PM 37.5572 -97.4803 137° Southeast 199 229 3,000 -341 Level Kansas City Center
Fri 06:27:53 PM 37.5922 -97.4483 36° Northeast 143 165 2,300 -554 Descending Kansas City Center
Fri 06:28:56 PM 37.6206 -97.4381 16° North 139 160 1,800 -384 Descending Kansas City Center
Fri 06:29:58 PM 37.6481 -97.4239 22° Northeast 119 137 1,500 -290 Descending Kansas City Center

Login

Don't have an account? Register now (free) for customized features, flight alerts, and more!